Time;durP1;ratioP1;P1;durP2;ratioP2;P2;SDS_P1;SDS_P2;PMS_P1;PMS_P2;Temp;Humidity;BMP_temperature;BMP_pressure;BME280_temperature;BME280_humidity;BME280_pressure;Samples;Min_cycle;Max_cycle;Signal;HPM_P1;HPM_P2
2023/03/01 00:01:31;;;;;;;0.28;0.10;;;;;;;6.97;100.00;102492.91;5043030;28;20044;-52
2023/03/01 00:03:58;;;;;;;0.57;0.20;;;;;;;6.99;100.00;102493.63;5043865;28;20029;-50
2023/03/01 00:06:24;;;;;;;3.33;0.60;;;;;;;6.98;100.00;102494.59;5045249;28;20462;-51
2023/03/01 00:08:49;;;;;;;0.85;0.20;;;;;;;6.95;100.00;102485.09;5041086;28;20024;-50
2023/03/01 00:11:21;;;;;;;0.40;0.40;;;;;;;6.87;100.00;102492.78;5044511;28;20041;-51
2023/03/01 00:13:47;;;;;;;1.45;0.45;;;;;;;6.76;100.00;102496.25;5039796;28;20041;-53
2023/03/01 00:16:16;;;;;;;0.40;0.30;;;;;;;6.74;100.00;102492.03;5042299;28;20029;-50
2023/03/01 00:18:42;;;;;;;2.35;0.80;;;;;;;6.72;100.00;102496.59;5045835;28;20033;-50
2023/03/01 00:21:07;;;;;;;0.47;0.20;;;;;;;6.70;100.00;102496.69;5045221;28;20031;-51
2023/03/01 00:23:36;;;;;;;0.30;0.00;;;;;;;6.66;100.00;102489.13;5043102;28;20029;-51
2023/03/01 00:26:06;;;;;;;1.42;0.28;;;;;;;6.66;100.00;102497.03;5039457;28;20490;-52
2023/03/01 00:28:31;;;;;;;0.00;0.00;;;;;;;6.58;100.00;102497.59;5045278;28;20110;-49
2023/03/01 00:31:02;;;;;;;0.10;0.10;;;;;;;6.56;100.00;102499.53;5043967;28;20417;-50
2023/03/01 00:33:28;;;;;;;0.10;0.10;;;;;;;6.57;100.00;102495.09;5045200;28;20028;-50
2023/03/01 00:35:53;;;;;;;2.05;0.20;;;;;;;6.58;100.00;102509.94;5043857;28;20033;-54
2023/03/01 00:38:18;;;;;;;0.20;0.10;;;;;;;6.52;100.00;102505.97;5038626;28;20112;-48
2023/03/01 00:40:44;;;;;;;0.00;0.00;;;;;;;6.54;100.00;102504.09;5044093;28;20058;-51
2023/03/01 00:43:10;;;;;;;1.42;0.10;;;;;;;6.60;100.00;102506.25;5045137;28;20508;-51
2023/03/01 00:45:35;;;;;;;0.00;0.00;;;;;;;6.56;100.00;102496.91;5044841;28;20032;-53
2023/03/01 00:48:00;;;;;;;0.45;0.45;;;;;;;6.57;100.00;102495.94;5043893;28;20035;-51
2023/03/01 00:50:26;;;;;;;0.98;0.10;;;;;;;6.42;100.00;102503.19;5041952;28;20169;-51
2023/03/01 00:52:55;;;;;;;0.63;0.10;;;;;;;6.48;100.00;102492.22;5042479;28;20028;-55
2023/03/01 00:55:21;;;;;;;0.00;0.00;;;;;;;6.52;100.00;102491.00;5046191;28;20519;-50
2023/03/01 00:57:47;;;;;;;0.35;0.08;;;;;;;6.57;100.00;102482.75;5040909;28;20366;-52
2023/03/01 01:00:12;;;;;;;0.00;0.00;;;;;;;6.60;100.00;102495.69;5045460;28;20037;-54
2023/03/01 01:02:37;;;;;;;3.30;0.00;;;;;;;6.60;100.00;102484.31;5043254;28;20029;-50
2023/03/01 01:05:04;;;;;;;0.00;0.00;;;;;;;6.64;100.00;102493.69;5044646;28;20037;-53
2023/03/01 01:07:29;;;;;;;0.30;0.00;;;;;;;6.72;100.00;102488.66;5046806;28;20028;-50
2023/03/01 01:09:55;;;;;;;0.10;0.00;;;;;;;6.70;100.00;102491.41;5042210;28;20370;-51
2023/03/01 01:12:20;;;;;;;0.10;0.00;;;;;;;6.65;100.00;102492.72;5046909;28;20374;-51
2023/03/01 01:14:46;;;;;;;0.22;0.00;;;;;;;6.63;100.00;102489.34;5037625;28;20102;-52
2023/03/01 01:17:11;;;;;;;0.10;0.10;;;;;;;6.58;100.00;102484.41;5049618;28;20488;-48
2023/03/01 01:19:36;;;;;;;0.35;0.10;;;;;;;6.55;100.00;102484.66;5038820;28;20087;-51
2023/03/01 01:22:03;;;;;;;0.10;0.10;;;;;;;6.57;100.00;102482.75;5035165;28;20044;-51
2023/03/01 01:24:28;;;;;;;0.38;0.10;;;;;;;6.55;100.00;102474.13;5047382;28;20512;-52
2023/03/01 01:26:54;;;;;;;0.30;0.30;;;;;;;6.52;100.00;102484.91;5044081;28;20083;-51
2023/03/01 01:29:19;;;;;;;3.03;0.10;;;;;;;6.54;100.00;102472.44;5047633;28;20385;-54
2023/03/01 01:31:45;;;;;;;0.10;0.00;;;;;;;6.55;100.00;102472.31;5046570;28;20453;-53
2023/03/01 01:34:19;;;;;;;0.00;0.00;;;;;;;6.59;100.00;102480.84;5043584;28;20032;-50
2023/03/01 01:36:49;;;;;;;0.10;0.10;;;;;;;6.60;100.00;102481.69;5045440;28;20028;-49
2023/03/01 01:39:14;;;;;;;0.40;0.35;;;;;;;6.60;100.00;102481.69;5042577;28;20053;-50
2023/03/01 01:41:44;;;;;;;0.08;0.05;;;;;;;6.62;100.00;102483.25;5046790;28;20060;-52
2023/03/01 01:44:16;;;;;;;0.98;0.00;;;;;;;6.64;100.00;102468.16;5045473;28;20751;-52
2023/03/01 01:46:56;;;;;;;2.22;0.10;;;;;;;6.62;100.00;102477.97;5049740;28;20032;-52
2023/03/01 01:49:37;;;;;;;0.15;0.00;;;;;;;6.48;100.00;102473.75;5040488;28;20504;-52
2023/03/01 01:52:11;;;;;;;;;;;;;;;6.50;100.00;102469.19;5041962;28;20025;-51
2023/03/01 01:54:42;;;;;;;0.00;0.00;;;;;;;6.33;100.00;102469.63;5045866;28;20003;-49
2023/03/01 01:57:14;;;;;;;0.43;0.20;;;;;;;6.34;100.00;102468.66;5043986;28;20064;-51
2023/03/01 01:59:44;;;;;;;0.65;0.20;;;;;;;6.28;100.00;102467.34;5044632;28;20035;-52
2023/03/01 02:02:09;;;;;;;0.25;0.22;;;;;;;6.20;100.00;102464.44;5041743;28;20040;-51
2023/03/01 02:04:35;;;;;;;0.00;0.00;;;;;;;6.23;100.00;102463.38;5039201;28;20367;-54
2023/03/01 02:07:16;;;;;;;0.35;0.00;;;;;;;6.18;100.00;102461.06;5047919;28;20025;-54
2023/03/01 02:09:52;;;;;;;0.98;0.25;;;;;;;6.08;100.00;102465.34;5041012;28;20033;-55
2023/03/01 02:12:20;;;;;;;0.03;0.03;;;;;;;6.02;100.00;102456.09;5039434;28;20025;-54
2023/03/01 02:14:45;;;;;;;0.08;0.08;;;;;;;6.02;100.00;102455.28;5051441;28;20033;-55
2023/03/01 02:17:16;;;;;;;0.85;0.10;;;;;;;6.03;100.00;102454.31;5045617;28;20048;-52
2023/03/01 02:19:56;;;;;;;0.20;0.10;;;;;;;5.98;100.00;102451.16;5047958;28;20044;-48
2023/03/01 02:22:34;;;;;;;0.30;0.20;;;;;;;5.96;100.00;102442.53;5047488;28;20029;-54
2023/03/01 02:25:54;;;;;;;0.00;0.00;;;;;;;5.97;100.00;102446.88;5050681;28;20025;-53
2023/03/01 02:28:30;;;;;;;0.38;0.10;;;;;;;5.87;100.00;102447.50;5014602;28;20418;-52
2023/03/01 02:33:42;;;;;;;0.60;0.30;;;;;;;5.96;100.00;102437.25;5046172;28;20036;-53
2023/03/01 02:36:18;;;;;;;1.10;0.25;;;;;;;5.95;100.00;102440.88;5049812;28;20033;-55
2023/03/01 02:38:44;;;;;;;0.43;0.10;;;;;;;5.97;100.00;102437.16;5041609;28;20536;-51
2023/03/01 02:41:13;;;;;;;0.22;0.00;;;;;;;5.90;100.00;102434.09;5048021;28;20041;-50
2023/03/01 02:43:38;;;;;;;0.10;0.10;;;;;;;5.94;100.00;102433.91;5048168;28;20057;-50
2023/03/01 02:46:07;;;;;;;0.65;0.15;;;;;;;5.84;100.00;102428.47;5048354;28;20548;-50
2023/03/01 02:48:48;;;;;;;0.95;0.50;;;;;;;5.89;100.00;102429.81;5047415;28;20044;-55
2023/03/01 02:51:33;;;;;;;0.68;0.13;;;;;;;5.86;100.00;102423.91;5045390;28;20032;-54
2023/03/01 02:54:12;;;;;;;0.10;0.10;;;;;;;5.83;100.00;102411.81;5048242;28;20572;-52
2023/03/01 02:56:38;;;;;;;0.10;0.10;;;;;;;5.84;100.00;102418.75;5049576;28;20525;-49
2023/03/01 02:59:04;;;;;;;0.13;0.00;;;;;;;5.83;100.00;102413.59;5044906;28;20108;-48
2023/03/01 03:01:38;;;;;;;0.22;0.20;;;;;;;5.79;100.00;102401.63;5045461;28;20097;-51
2023/03/01 03:04:06;;;;;;;0.13;0.10;;;;;;;5.68;100.00;102405.88;5043865;28;20029;-47
2023/03/01 03:06:31;;;;;;;0.57;0.10;;;;;;;5.65;100.00;102407.88;5054541;28;20111;-52
2023/03/01 03:08:57;;;;;;;0.10;0.10;;;;;;;5.53;100.00;102398.28;5041624;28;20108;-52
2023/03/01 03:11:23;;;;;;;0.20;0.20;;;;;;;5.46;100.00;102401.34;5039940;28;20029;-52
2023/03/01 03:13:48;;;;;;;0.20;0.10;;;;;;;5.42;100.00;102391.13;5040624;28;20101;-52
2023/03/01 03:16:14;;;;;;;2.05;0.20;;;;;;;5.32;100.00;102395.38;5048290;28;20029;-50
2023/03/01 03:18:40;;;;;;;0.75;0.00;;;;;;;5.20;100.00;102390.03;5050011;28;20055;-48
2023/03/01 03:21:12;;;;;;;1.67;0.03;;;;;;;5.12;100.00;102387.13;5046933;28;20067;-54
2023/03/01 03:23:38;;;;;;;0.20;0.20;;;;;;;5.06;100.00;102384.94;5042429;28;20029;-52
2023/03/01 03:26:04;;;;;;;0.65;0.32;;;;;;;4.97;100.00;102381.16;5050185;28;20036;-50
2023/03/01 03:28:31;;;;;;;0.57;0.20;;;;;;;4.93;100.00;102382.34;5041347;28;20052;-49
2023/03/01 03:30:56;;;;;;;0.10;0.10;;;;;;;4.87;100.00;102382.75;5033990;28;20103;-51
2023/03/01 03:33:22;;;;;;;0.10;0.10;;;;;;;4.88;100.00;102386.22;5044530;28;20588;-50
2023/03/01 03:35:49;;;;;;;0.20;0.10;;;;;;;4.81;100.00;102383.19;5044697;28;20064;-53
2023/03/01 03:38:17;;;;;;;0.10;0.10;;;;;;;4.77;100.00;102387.78;5041845;28;20021;-53
2023/03/01 03:40:45;;;;;;;0.10;0.10;;;;;;;4.75;100.00;102378.34;5045825;28;20470;-51
2023/03/01 03:43:14;;;;;;;0.00;0.00;;;;;;;4.70;100.00;102383.06;5052529;28;20025;-54
2023/03/01 03:45:40;;;;;;;0.22;0.20;;;;;;;4.64;100.00;102373.00;5044870;28;20029;-51
2023/03/01 03:48:09;;;;;;;0.10;0.10;;;;;;;4.57;100.00;102373.44;5043484;28;20106;-51
2023/03/01 03:50:34;;;;;;;0.25;0.10;;;;;;;4.45;100.00;102370.81;5052244;28;20029;-51
2023/03/01 03:53:01;;;;;;;0.13;0.13;;;;;;;4.34;100.00;102376.78;5047498;28;20368;-51
2023/03/01 03:55:30;;;;;;;0.00;0.00;;;;;;;4.26;100.00;102371.19;5048876;28;20029;-49
2023/03/01 03:57:57;;;;;;;0.30;0.30;;;;;;;4.21;100.00;102365.41;5051602;28;20033;-52
2023/03/01 04:00:23;;;;;;;0.17;0.03;;;;;;;4.18;100.00;102357.75;5047418;28;20117;-50
2023/03/01 04:02:50;;;;;;;0.00;0.00;;;;;;;4.19;100.00;102365.53;5041524;28;20115;-51
2023/03/01 04:05:18;;;;;;;0.68;0.00;;;;;;;4.14;100.00;102357.94;5047640;28;20508;-52
2023/03/01 04:07:44;;;;;;;4.45;0.05;;;;;;;4.17;100.00;102361.31;5047266;28;20110;-56
2023/03/01 04:10:16;;;;;;;0.47;0.00;;;;;;;4.20;100.00;102358.47;5043167;28;20029;-48
2023/03/01 04:12:43;;;;;;;0.13;0.00;;;;;;;4.33;100.00;102359.34;5041330;28;20392;-53
2023/03/01 04:15:13;;;;;;;2.00;0.40;;;;;;;4.35;100.00;102349.56;5044042;28;20032;-50
2023/03/01 04:17:43;;;;;;;0.00;0.00;;;;;;;4.35;100.00;102357.44;5048577;28;20424;-51
2023/03/01 04:20:13;;;;;;;0.08;0.00;;;;;;;4.32;100.00;102347.16;5048186;28;20290;-51
2023/03/01 04:22:40;;;;;;;1.55;0.10;;;;;;;4.28;100.00;102348.28;5047236;28;20363;-54
2023/03/01 04:25:06;;;;;;;0.82;0.00;;;;;;;4.27;100.00;102349.25;5047990;28;20033;-50
2023/03/01 04:27:33;;;;;;;0.45;0.00;;;;;;;4.28;100.00;102345.66;5045411;28;20424;-54
2023/03/01 04:29:58;;;;;;;1.60;0.10;;;;;;;4.27;100.00;102344.00;5046413;28;20072;-52
2023/03/01 04:32:24;;;;;;;0.10;0.00;;;;;;;4.30;100.00;102343.78;5044852;28;20060;-53
2023/03/01 04:34:49;;;;;;;0.20;0.10;;;;;;;4.37;100.00;102348.53;5043784;28;20028;-50
2023/03/01 04:37:15;;;;;;;0.10;0.10;;;;;;;4.39;100.00;102343.19;5040711;28;20147;-49
2023/03/01 04:39:45;;;;;;;0.00;0.00;;;;;;;4.42;100.00;102350.84;5039636;28;20034;-53
2023/03/01 04:42:11;;;;;;;0.40;0.15;;;;;;;4.44;100.00;102348.09;5040828;28;20532;-55
2023/03/01 04:44:37;;;;;;;0.00;0.00;;;;;;;4.52;100.00;102356.31;5048862;28;20037;-53
2023/03/01 04:47:03;;;;;;;0.00;0.00;;;;;;;4.56;100.00;102353.34;5044289;28;20448;-50
2023/03/01 04:49:28;;;;;;;0.00;0.00;;;;;;;4.62;100.00;102343.34;5041000;28;20029;-55
2023/03/01 04:51:54;;;;;;;2.40;0.10;;;;;;;4.62;100.00;102343.34;5044386;28;20025;-51
2023/03/01 04:54:19;;;;;;;0.00;0.00;;;;;;;4.63;100.00;102345.88;5048836;28;20056;-52
2023/03/01 04:56:44;;;;;;;0.13;0.00;;;;;;;4.58;100.00;102332.22;5047932;28;20037;-55
2023/03/01 04:59:12;;;;;;;0.55;0.10;;;;;;;4.50;100.00;102335.38;5041995;28;20044;-51
2023/03/01 05:01:38;;;;;;;0.00;0.00;;;;;;;4.47;100.00;102335.59;5048336;28;20032;-54
2023/03/01 05:04:05;;;;;;;0.20;0.10;;;;;;;4.52;100.00;102333.50;5042805;28;20500;-53
2023/03/01 05:06:31;;;;;;;0.20;0.00;;;;;;;4.56;100.00;102323.59;5038161;28;20115;-53
2023/03/01 05:08:56;;;;;;;0.10;0.00;;;;;;;4.57;100.00;102333.19;5038217;28;20505;-50
2023/03/01 05:11:22;;;;;;;0.00;0.00;;;;;;;4.55;100.00;102328.03;5046088;28;20048;-54
2023/03/01 05:13:47;;;;;;;0.22;0.00;;;;;;;4.53;100.00;102329.91;5049494;28;20092;-54
2023/03/01 05:16:13;;;;;;;0.20;0.00;;;;;;;4.55;100.00;102327.19;5046121;28;20416;-49
2023/03/01 05:18:39;;;;;;;1.10;0.00;;;;;;;4.56;100.00;102327.06;5049152;28;20020;-51
2023/03/01 05:21:10;;;;;;;0.20;0.13;;;;;;;4.57;100.00;102323.50;5043186;28;20036;-51
2023/03/01 05:23:36;;;;;;;;;;;;;;;4.68;100.00;102324.56;5045510;28;20040;-52
2023/03/01 05:26:03;;;;;;;1.55;0.00;;;;;;;4.59;100.00;102320.75;5047958;28;20058;-55
2023/03/01 05:28:29;;;;;;;1.25;0.45;;;;;;;4.59;100.00;102308.50;5038741;28;20174;-51
2023/03/01 05:30:56;;;;;;;0.22;0.13;;;;;;;4.59;100.00;102305.88;5045342;28;20139;-54
2023/03/01 05:33:21;;;;;;;0.45;0.10;;;;;;;4.53;100.00;102308.06;5045392;28;20025;-53
2023/03/01 05:35:48;;;;;;;0.17;0.00;;;;;;;4.41;100.00;102308.91;5047014;28;20032;-55
2023/03/01 05:38:15;;;;;;;0.00;0.00;;;;;;;4.25;100.00;102309.13;5045188;28;20369;-52
2023/03/01 05:40:42;;;;;;;3.30;0.63;;;;;;;4.08;100.00;102310.25;5046300;28;20037;-54
2023/03/01 05:43:07;;;;;;;0.00;0.00;;;;;;;3.92;100.00;102313.06;5046288;28;20025;-55
2023/03/01 05:45:35;;;;;;;0.63;0.10;;;;;;;3.76;100.00;102309.81;5049065;28;20043;-53
2023/03/01 05:48:00;;;;;;;5.57;0.25;;;;;;;3.63;100.00;102307.16;5049593;28;20159;-50
2023/03/01 05:50:28;;;;;;;1.65;0.10;;;;;;;3.59;100.00;102301.28;5044490;28;20099;-52
2023/03/01 05:53:05;;;;;;;0.35;0.00;;;;;;;3.53;100.00;102303.44;5046159;28;20055;-52
2023/03/01 05:55:32;;;;;;;0.00;0.00;;;;;;;3.38;100.00;102321.00;5046550;28;20451;-52
2023/03/01 05:58:00;;;;;;;0.30;0.00;;;;;;;3.30;100.00;102311.03;5039826;28;20033;-52
2023/03/01 06:00:27;;;;;;;1.38;0.10;;;;;;;3.21;100.00;102312.47;5040274;28;20036;-55
2023/03/01 06:02:54;;;;;;;0.30;0.28;;;;;;;3.14;100.00;102313.78;5044615;28;20032;-51
2023/03/01 06:05:20;;;;;;;0.65;0.20;;;;;;;3.14;100.00;102315.56;5048978;28;20086;-51
2023/03/01 06:07:46;;;;;;;0.15;0.15;;;;;;;3.11;100.00;102310.53;5045982;28;20075;-50
2023/03/01 06:10:13;;;;;;;2.95;0.38;;;;;;;3.05;100.00;102314.38;5044159;28;20018;-53
2023/03/01 06:12:40;;;;;;;0.70;0.10;;;;;;;2.99;100.00;102312.13;5044924;28;20041;-54
2023/03/01 06:15:09;;;;;;;0.45;0.10;;;;;;;2.88;100.00;102310.19;5046173;28;20064;-51
2023/03/01 06:17:37;;;;;;;0.90;0.15;;;;;;;2.83;100.00;102307.03;5045982;28;20021;-53
2023/03/01 06:20:11;;;;;;;0.20;0.20;;;;;;;2.74;100.00;102311.06;5046212;28;20494;-53
2023/03/01 06:22:36;;;;;;;0.10;0.10;;;;;;;2.67;100.00;102311.53;5046155;28;20489;-49
2023/03/01 06:25:02;;;;;;;0.10;0.10;;;;;;;2.65;100.00;102313.41;5043404;28;20044;-50
2023/03/01 06:27:27;;;;;;;0.70;0.10;;;;;;;2.65;100.00;102314.25;5048275;28;20043;-53
2023/03/01 06:29:53;;;;;;;0.57;0.10;;;;;;;2.63;100.00;102316.09;5043847;28;20126;-52
2023/03/01 06:32:18;;;;;;;0.75;0.50;;;;;;;2.58;100.00;102318.16;5043280;28;20045;-49
2023/03/01 06:34:44;;;;;;;0.82;0.22;;;;;;;2.51;100.00;102316.88;5044734;28;20029;-49
2023/03/01 06:37:09;;;;;;;0.45;0.00;;;;;;;2.46;100.00;102316.31;5043899;28;20029;-50
2023/03/01 06:39:35;;;;;;;0.47;0.08;;;;;;;2.45;100.00;102314.63;5042732;28;20024;-54
2023/03/01 06:42:00;;;;;;;0.80;0.00;;;;;;;2.44;100.00;102326.03;5046027;28;20475;-53
2023/03/01 06:44:26;;;;;;;1.40;0.38;;;;;;;2.38;100.00;102330.72;5051382;28;20095;-53
2023/03/01 06:46:51;;;;;;;0.75;0.20;;;;;;;2.35;100.00;102325.66;5045789;28;20040;-50
2023/03/01 06:49:17;;;;;;;0.30;0.25;;;;;;;2.32;100.00;102332.84;5034254;28;20485;-51
2023/03/01 06:51:43;;;;;;;0.20;0.20;;;;;;;2.27;100.00;102329.66;5045056;28;20040;-49
2023/03/01 06:54:09;;;;;;;1.08;0.30;;;;;;;2.23;100.00;102341.25;5044032;28;20072;-51
2023/03/01 06:56:34;;;;;;;0.25;0.10;;;;;;;2.18;100.00;102341.53;5045798;28;20029;-52
2023/03/01 06:58:59;;;;;;;4.80;0.30;;;;;;;2.15;100.00;102341.72;5036708;28;20485;-50
2023/03/01 07:01:25;;;;;;;0.80;0.25;;;;;;;2.11;100.00;102348.88;5047339;28;20048;-49
2023/03/01 07:03:50;;;;;;;0.30;0.30;;;;;;;2.11;100.00;102346.25;5044987;28;20167;-52
2023/03/01 07:06:16;;;;;;;0.55;0.10;;;;;;;2.09;100.00;102353.38;5044962;28;20052;-51
2023/03/01 07:08:41;;;;;;;0.85;0.40;;;;;;;2.17;100.00;102348.53;5052255;28;20029;-51
2023/03/01 07:11:06;;;;;;;1.27;0.85;;;;;;;2.25;100.00;102348.09;5043293;28;20075;-50
2023/03/01 07:13:32;;;;;;;2.50;0.40;;;;;;;2.16;100.00;102346.84;5050057;28;20128;-51
2023/03/01 07:15:57;;;;;;;0.82;0.22;;;;;;;2.19;100.00;102348.44;5044382;28;20029;-51
2023/03/01 07:18:23;;;;;;;0.85;0.30;;;;;;;2.33;100.00;102348.47;5040918;28;20039;-49
2023/03/01 07:20:49;;;;;;;1.00;0.47;;;;;;;2.44;100.00;102344.38;5045870;28;20037;-51
2023/03/01 07:23:15;;;;;;;2.22;0.25;;;;;;;2.53;100.00;102349.03;5043161;28;20033;-52
2023/03/01 07:25:40;;;;;;;1.25;0.95;;;;;;;2.48;100.00;102349.34;5052250;28;20032;-51
2023/03/01 07:28:05;;;;;;;1.67;0.40;;;;;;;2.46;100.00;102345.97;5040406;28;20021;-52
2023/03/01 07:30:31;;;;;;;0.63;0.47;;;;;;;2.39;100.00;102348.09;5045119;28;20029;-49
2023/03/01 07:32:58;;;;;;;1.63;0.60;;;;;;;2.39;100.00;102355.09;5056286;28;20115;-52
2023/03/01 07:35:25;;;;;;;0.98;0.22;;;;;;;2.43;100.00;102355.75;5045307;28;20024;-54
2023/03/01 07:37:51;;;;;;;0.75;0.32;;;;;;;2.60;100.00;102360.81;5042302;28;20024;-50
2023/03/01 07:40:16;;;;;;;1.58;0.40;;;;;;;2.90;100.00;102370.38;5048119;28;20119;-52
2023/03/01 07:42:42;;;;;;;0.52;0.50;;;;;;;3.09;100.00;102363.03;5044052;28;20124;-50
2023/03/01 07:45:07;;;;;;;1.05;0.45;;;;;;;3.27;100.00;102364.50;5047285;28;20083;-53
2023/03/01 07:47:33;;;;;;;0.57;0.30;;;;;;;3.34;100.00;102361.50;5046287;28;20045;-55
2023/03/01 07:49:58;;;;;;;5.70;0.20;;;;;;;3.43;100.00;102359.13;5044812;28;20032;-53
2023/03/01 07:52:24;;;;;;;2.00;0.47;;;;;;;3.48;100.00;102356.19;5050630;28;20112;-55
2023/03/01 07:54:49;;;;;;;0.43;0.38;;;;;;;3.57;100.00;102354.78;5047727;28;20036;-53
2023/03/01 07:57:15;;;;;;;6.05;0.55;;;;;;;3.66;100.00;102359.41;5047633;28;20060;-51
2023/03/01 07:59:40;;;;;;;0.13;0.13;;;;;;;3.97;100.00;102350.34;5046842;28;20417;-56
2023/03/01 08:02:05;;;;;;;1.13;0.20;;;;;;;4.25;100.00;102345.88;5048757;28;20036;-54
2023/03/01 08:04:32;;;;;;;0.93;0.47;;;;;;;4.41;100.00;102354.38;5050389;28;20083;-55
2023/03/01 08:06:58;;;;;;;0.85;0.85;;;;;;;4.53;100.00;102342.22;5054739;28;20056;-52
2023/03/01 08:09:24;;;;;;;2.47;0.17;;;;;;;4.72;100.00;102334.72;5048522;28;20117;-53
2023/03/01 08:11:49;;;;;;;0.65;0.10;;;;;;;4.87;100.00;102332.81;5049529;28;20059;-52
2023/03/01 08:14:15;;;;;;;2.08;0.10;;;;;;;5.00;100.00;102333.59;5051651;28;20025;-52
2023/03/01 08:16:40;;;;;;;1.95;0.30;;;;;;;5.15;100.00;102331.69;5053753;28;20497;-54
2023/03/01 08:19:07;;;;;;;0.77;0.75;;;;;;;5.28;100.00;102334.25;5055232;28;20044;-54
2023/03/01 08:21:34;;;;;;;1.23;1.00;;;;;;;5.48;100.00;102345.97;5051041;28;20040;-50
2023/03/01 08:24:00;;;;;;;2.08;0.20;;;;;;;5.74;100.00;102333.53;5053552;28;20112;-56
2023/03/01 08:26:26;;;;;;;1.92;0.10;;;;;;;6.00;100.00;102334.25;5042098;28;20452;-54
2023/03/01 08:28:51;;;;;;;1.00;0.22;;;;;;;6.21;100.00;102336.19;5048218;28;20032;-53
2023/03/01 08:31:24;;;;;;;0.50;0.20;;;;;;;6.26;100.00;102339.31;5053835;28;20033;-51
2023/03/01 08:33:55;;;;;;;3.95;0.55;;;;;;;6.26;100.00;102336.69;5046620;28;20029;-52
2023/03/01 08:36:22;;;;;;;0.63;0.22;;;;;;;6.22;100.00;102335.22;5043898;28;20044;-51
2023/03/01 08:38:48;;;;;;;0.40;0.20;;;;;;;6.21;100.00;102331.75;5048419;28;20389;-54
2023/03/01 08:41:14;;;;;;;0.00;0.00;;;;;;;6.22;100.00;102327.31;5045133;28;20037;-52
2023/03/01 08:43:39;;;;;;;0.80;0.38;;;;;;;6.26;100.00;102329.63;5051239;28;20041;-53
2023/03/01 08:46:04;;;;;;;1.17;0.82;;;;;;;6.26;100.00;102318.25;5055052;28;20087;-53
2023/03/01 08:48:30;;;;;;;0.38;0.10;;;;;;;6.27;100.00;102314.66;5050219;28;20039;-49
2023/03/01 08:50:56;;;;;;;1.48;0.25;;;;;;;6.27;100.00;102326.03;5047229;28;20021;-49
2023/03/01 08:53:21;;;;;;;0.20;0.20;;;;;;;6.25;100.00;102314.78;5042309;28;20044;-54
2023/03/01 08:55:46;;;;;;;0.47;0.30;;;;;;;6.26;100.00;102321.72;5043331;28;20051;-55
2023/03/01 08:58:11;;;;;;;1.55;0.20;;;;;;;6.41;100.00;102324.13;5050427;28;20044;-55
2023/03/01 09:00:37;;;;;;;1.95;0.20;;;;;;;6.55;100.00;102313.34;5053818;28;20511;-52
2023/03/01 09:03:02;;;;;;;0.95;0.38;;;;;;;6.45;100.00;102318.50;5048975;28;20074;-52
2023/03/01 09:05:28;;;;;;;0.57;0.13;;;;;;;6.48;100.00;102318.28;5049538;28;20036;-51
2023/03/01 09:07:53;;;;;;;0.30;0.10;;;;;;;6.56;100.00;102317.69;5053218;28;20029;-54
2023/03/01 09:10:18;;;;;;;0.93;0.20;;;;;;;6.59;100.00;102308.69;5050588;28;20033;-56
2023/03/01 09:12:44;;;;;;;0.93;0.85;;;;;;;6.61;100.00;102304.97;5053417;28;20025;-53
2023/03/01 09:15:10;;;;;;;0.20;0.17;;;;;;;6.58;100.00;102302.56;5044958;28;20446;-56
2023/03/01 09:17:35;;;;;;;1.55;1.00;;;;;;;6.61;100.00;102297.06;5049259;28;20029;-53
2023/03/01 09:20:00;;;;;;;0.55;0.20;;;;;;;6.64;100.00;102296.81;5047807;28;20029;-51
2023/03/01 09:22:26;;;;;;;0.70;0.25;;;;;;;6.66;100.00;102302.81;5053300;28;20123;-50
2023/03/01 09:24:51;;;;;;;0.50;0.32;;;;;;;6.73;100.00;102301.34;5045354;28;20029;-53
2023/03/01 09:27:18;;;;;;;0.20;0.20;;;;;;;6.84;100.00;102302.31;5050738;28;20021;-56
2023/03/01 09:29:44;;;;;;;0.17;0.17;;;;;;;6.96;100.00;102306.59;5042039;28;20021;-54
2023/03/01 09:32:10;;;;;;;1.98;0.13;;;;;;;7.04;100.00;102304.19;5045927;28;20350;-51
2023/03/01 09:35:00;;;;;;;0.20;0.20;;;;;;;7.07;100.00;102298.66;5052525;28;20102;-54
2023/03/01 09:37:20;;;;;;;1.05;0.40;;;;;;;7.06;100.00;102297.00;5041139;28;20081;-53
2023/03/01 09:39:46;;;;;;;0.77;0.20;;;;;;;7.02;100.00;102298.19;5041974;28;20053;-50
2023/03/01 09:42:12;;;;;;;0.28;0.20;;;;;;;7.13;100.00;102292.06;5049530;28;20174;-53
2023/03/01 09:45:01;;;;;;;0.38;0.20;;;;;;;7.34;100.00;102300.03;5048672;28;20151;-54
2023/03/01 09:47:29;;;;;;;3.30;0.20;;;;;;;7.57;100.00;102282.31;5046026;28;20025;-53
2023/03/01 09:50:16;;;;;;;0.75;0.20;;;;;;;7.59;100.00;102278.59;5037537;28;20029;-53
2023/03/01 09:52:45;;;;;;;0.10;0.03;;;;;;;7.52;100.00;102277.41;5039778;28;20039;-51
2023/03/01 09:55:14;;;;;;;0.43;0.10;;;;;;;7.46;100.00;102277.94;5047100;28;20036;-55
2023/03/01 09:57:52;;;;;;;1.38;0.60;;;;;;;7.43;100.00;102278.16;5052545;28;20025;-53
2023/03/01 10:00:24;;;;;;;0.25;0.25;;;;;;;7.36;100.00;102277.00;5057706;28;20044;-51
2023/03/01 10:03:02;;;;;;;;;;;;;;;7.52;100.00;102273.94;5049686;28;20025;-53
2023/03/01 10:05:37;;;;;;;0.63;0.20;;;;;;;7.32;100.00;102267.66;5048673;28;19923;-53
2023/03/01 10:08:25;;;;;;;1.02;0.40;;;;;;;7.37;100.00;102268.13;5051836;28;20033;-55
2023/03/01 10:10:52;;;;;;;0.52;0.30;;;;;;;7.43;100.00;102262.31;5050176;28;20036;-53
2023/03/01 10:13:24;;;;;;;2.67;0.10;;;;;;;7.42;100.00;102264.13;5040364;28;20116;-52
2023/03/01 10:16:11;;;;;;;1.23;0.10;;;;;;;7.45;100.00;102262.22;5055850;28;20577;-52
2023/03/01 10:18:37;;;;;;;0.52;0.10;;;;;;;7.46;100.00;102256.81;5050413;28;20104;-51
2023/03/01 10:21:15;;;;;;;1.48;0.20;;;;;;;7.57;100.00;102261.19;5050920;28;20532;-50
2023/03/01 10:23:40;;;;;;;0.08;0.00;;;;;;;7.61;100.00;102258.16;5042245;28;20032;-53
2023/03/01 10:26:17;;;;;;;0.00;0.00;;;;;;;7.65;100.00;102250.81;5050532;28;20033;-55
2023/03/01 10:29:01;;;;;;;1.65;0.20;;;;;;;7.78;100.00;102250.63;5044665;28;20040;-55
2023/03/01 10:31:52;;;;;;;1.55;0.10;;;;;;;7.75;100.00;102238.53;5045409;28;20029;-50
2023/03/01 10:34:27;;;;;;;0.00;0.00;;;;;;;7.69;100.00;102238.19;5047634;28;20049;-53
2023/03/01 10:36:57;;;;;;;0.80;0.22;;;;;;;7.83;100.00;102230.78;5048414;28;20028;-51
2023/03/01 10:39:25;;;;;;;1.65;0.55;;;;;;;7.78;100.00;102229.50;5044689;28;20025;-56
2023/03/01 10:41:55;;;;;;;4.57;1.13;;;;;;;7.94;100.00;102224.59;5050424;28;20025;-52
2023/03/01 10:44:42;;;;;;;0.10;0.00;;;;;;;8.07;100.00;102222.56;5050255;28;20040;-52
2023/03/01 10:47:20;;;;;;;0.00;0.00;;;;;;;8.08;100.00;102218.13;5047398;28;20033;-52
2023/03/01 10:50:04;;;;;;;0.15;0.00;;;;;;;8.22;100.00;102217.78;5052332;28;20078;-51
2023/03/01 10:52:29;;;;;;;0.63;0.03;;;;;;;8.57;100.00;102220.97;5044478;28;20392;-57
2023/03/01 10:55:12;;;;;;;0.40;0.05;;;;;;;8.84;100.00;102213.22;5046424;28;20041;-52
2023/03/01 10:57:40;;;;;;;0.43;0.00;;;;;;;9.02;100.00;102208.09;5044519;28;20712;-53
2023/03/01 11:00:25;;;;;;;0.08;0.00;;;;;;;8.90;100.00;102203.91;5048915;28;20040;-52
2023/03/01 11:03:03;;;;;;;0.00;0.00;;;;;;;8.71;100.00;102194.97;5043118;28;20037;-52
2023/03/01 11:05:30;;;;;;;1.85;0.38;;;;;;;8.68;100.00;102192.63;5046439;28;20025;-54
2023/03/01 11:07:59;;;;;;;0.28;0.03;;;;;;;8.63;100.00;102194.00;5049498;28;20033;-53
2023/03/01 11:10:28;;;;;;;0.45;0.00;;;;;;;8.51;100.00;102186.16;5052019;28;20033;-51
2023/03/01 11:13:05;;;;;;;0.00;0.00;;;;;;;8.55;100.00;102185.91;5050179;28;20074;-55
2023/03/01 11:15:30;;;;;;;0.32;0.10;;;;;;;8.65;100.00;102181.47;5041092;28;20092;-56
2023/03/01 11:17:57;;;;;;;0.00;0.00;;;;;;;8.66;100.00;102188.44;5046273;28;20029;-55
2023/03/01 11:20:37;;;;;;;0.15;0.13;;;;;;;8.74;100.00;102185.94;5051784;28;20123;-55
2023/03/01 11:23:08;;;;;;;0.70;0.70;;;;;;;8.63;100.00;102173.69;5045925;28;20080;-51
2023/03/01 11:25:39;;;;;;;;;;;;;;;8.87;100.00;102172.44;5044755;28;20079;-55
2023/03/01 11:28:06;;;;;;;1.48;0.00;;;;;;;8.66;100.00;102177.84;5045347;28;19912;-57
2023/03/01 11:30:46;;;;;;;0.95;0.00;;;;;;;8.39;100.00;102179.34;5047632;28;20473;-54
2023/03/01 11:33:34;;;;;;;0.95;0.00;;;;;;;8.38;100.00;102179.44;5045203;28;20053;-56
2023/03/01 11:36:02;;;;;;;0.45;0.10;;;;;;;8.32;100.00;102182.63;5047335;28;20482;-54